Terminal Aerodrome Forecast
Issued by NWS Wakefield, VA

Home | Current Version | Previous Version | Text Only | Print | Product List | Glossary On
Versions: 1 2 3 4 5 6 7 8 9 10 11 12 13 14 15
283
FTUS41 KAKQ 242320
TAFRIC
TAF
KRIC 242320Z 2500/2524 14006KT P6SM SCT080
     FM250900 17005KT 3SM BR SCT025 BKN100
     FM251100 17005KT 5SM BR BKN015
     FM251400 18010KT P6SM BKN120
     FM251800 19013G20KT P6SM VCSH BKN060
     FM252100 24013G20KT 4SM SHRA OVC035=

USA.gov is the U.S. government's official web portal to all federal, state and local government web resources and services.